LFPO 250900Z 25006KT CAVOK 27/20 Q1016 NOSIG

ElémentsDécodage
LFPO Station météo située sur l'aérodrome de PARIS Orly
250900Z émis le 25 du mois à 09h00 UTC
25006KT vent du 250°, 06 noeuds
CAVOK Ceiling And Visibility OK
- Visibilité de 10 Km ou plus
- Pas de nuage au-dessous de 1500m ou au-dessous de l'altitude minimale du secteur la plus élevée (si>1500m) et absence de CB
- pas de temps présent significatif
27/20 température 27°C, point de rosée 20°C
 soit une humidité relative de 66%
Q1016 la pression au niveau de la mer (QNH) est de 1016 hPa
NOSIG Pas de changement significatif prévu au cours des deux heures suivant l'heure de l'observation